createdAt,value
2023-02-24T00:02:06.234Z,65.00
2023-02-24T00:04:40.429Z,63.05
2023-02-24T00:07:10.741Z,66.72
2023-02-24T00:09:39.620Z,63.97
2023-02-24T00:12:14.008Z,59.85
2023-02-24T00:14:45.180Z,61.30
2023-02-24T00:17:17.173Z,60.47
2023-02-24T00:19:46.636Z,60.60
2023-02-24T00:22:14.927Z,60.42
2023-02-24T00:24:42.779Z,66.30
2023-02-24T00:27:13.655Z,65.30
2023-02-24T00:29:46.208Z,64.53
2023-02-24T00:32:15.163Z,61.88
2023-02-24T00:34:43.624Z,61.72
2023-02-24T00:37:12.358Z,62.33
2023-02-24T00:39:41.997Z,58.33
2023-02-24T00:42:12.243Z,58.05
2023-02-24T00:44:44.422Z,57.55
2023-02-24T00:47:16.501Z,59.35
2023-02-24T00:49:44.871Z,57.78
2023-02-24T00:52:20.074Z,57.10
2023-02-24T00:54:49.929Z,58.33
2023-02-24T00:57:20.609Z,57.72
2023-02-24T00:59:51.603Z,56.28
2023-02-24T01:02:20.753Z,59.00
2023-02-24T01:04:50.151Z,56.53
2023-02-24T01:07:18.431Z,58.13
2023-02-24T01:09:46.480Z,55.90
2023-02-24T01:12:33.798Z,57.22
2023-02-24T01:15:03.375Z,55.28
2023-02-24T01:17:31.874Z,57.97
2023-02-24T01:20:01.441Z,58.13
2023-02-24T01:22:30.673Z,57.65
2023-02-24T01:24:58.952Z,56.17
2023-02-24T01:27:27.202Z,58.70
2023-02-24T01:29:55.051Z,55.03
2023-02-24T01:32:25.683Z,57.50
2023-02-24T01:34:53.823Z,59.08
2023-02-24T01:37:22.317Z,55.65
2023-02-24T01:39:50.605Z,56.13
2023-02-24T01:42:21.491Z,59.00
2023-02-24T01:44:52.354Z,56.70
2023-02-24T01:47:22.801Z,58.53
2023-02-24T01:49:54.413Z,56.03
2023-02-24T01:52:26.846Z,56.10
2023-02-24T01:55:20.384Z,58.40
2023-02-24T01:57:51.997Z,56.22
2023-02-24T02:00:40.591Z,57.22
2023-02-24T02:03:19.838Z,56.53
2023-02-24T02:05:48.964Z,54.80
2023-02-24T02:08:18.799Z,53.75
2023-02-24T02:10:47.231Z,55.97
2023-02-24T02:13:21.927Z,56.63
2023-02-24T02:15:59.679Z,55.30
2023-02-24T02:18:48.046Z,54.90
2023-02-24T02:21:55.341Z,55.17
2023-02-24T02:24:40.348Z,57.75
2023-02-24T02:27:33.367Z,52.13
2023-02-24T02:30:17.814Z,55.53
2023-02-24T02:35:37.308Z,53.72
2023-02-24T02:38:26.222Z,53.58
2023-02-24T02:41:23.977Z,57.70
2023-02-24T02:43:57.286Z,55.78
2023-02-24T02:46:35.107Z,59.33
2023-02-24T02:49:24.628Z,54.33
2023-02-24T02:51:59.914Z,55.33
2023-02-24T02:54:50.095Z,54.33
2023-02-24T02:57:28.321Z,55.97
2023-02-24T03:00:14.299Z,54.78
2023-02-24T03:02:47.346Z,53.35
2023-02-24T03:05:20.791Z,55.00
2023-02-24T03:07:53.531Z,56.13
2023-02-24T03:10:28.201Z,53.80
2023-02-24T03:13:01.105Z,56.13
2023-02-24T03:15:33.808Z,57.38
2023-02-24T03:18:10.680Z,52.53
2023-02-24T03:21:29.522Z,50.92
2023-02-24T03:23:57.942Z,51.53
2023-02-24T03:26:50.047Z,53.33
2023-02-24T03:29:27.655Z,53.45
2023-02-24T03:32:09.586Z,53.83
2023-02-24T03:35:04.854Z,49.40
2023-02-24T03:37:34.483Z,51.17
2023-02-24T03:40:14.953Z,53.35
2023-02-24T03:42:51.104Z,53.67
2023-02-24T03:45:23.016Z,54.17
2023-02-24T03:47:54.380Z,53.75
2023-02-24T03:50:23.470Z,51.78
2023-02-24T03:53:08.488Z,52.42
2023-02-24T03:56:05.202Z,53.85
2023-02-24T04:01:58.272Z,52.35
2023-02-24T04:04:48.775Z,52.63
2023-02-24T04:07:41.562Z,53.70
2023-02-24T04:10:34.502Z,54.17
2023-02-24T04:13:05.002Z,51.65
2023-02-24T04:15:44.599Z,50.65
2023-02-24T04:18:13.934Z,53.67
2023-02-24T04:20:45.775Z,51.30
2023-02-24T04:23:18.660Z,52.17
2023-02-24T04:25:52.038Z,49.92
2023-02-24T04:28:23.640Z,54.22
2023-02-24T04:31:00.986Z,52.53
2023-02-24T04:33:29.617Z,50.05
2023-02-24T04:35:57.815Z,52.15
2023-02-24T04:38:28.176Z,49.30
2023-02-24T04:40:57.698Z,51.58
2023-02-24T04:43:26.109Z,53.50
2023-02-24T04:45:56.006Z,52.63
2023-02-24T04:48:24.358Z,51.47
2023-02-24T04:50:55.551Z,52.08
2023-02-24T04:53:27.537Z,51.47
2023-02-24T04:55:56.526Z,54.35
2023-02-24T04:58:29.637Z,55.30
2023-02-24T05:00:57.662Z,57.00
2023-02-24T05:03:29.312Z,52.55
2023-02-24T05:06:02.218Z,54.90
2023-02-24T05:08:31.411Z,53.22
2023-02-24T05:11:04.125Z,54.90
2023-02-24T05:13:34.094Z,50.80
2023-02-24T05:16:08.877Z,55.45
2023-02-24T05:18:37.573Z,54.97
2023-02-24T05:21:27.079Z,51.58
2023-02-24T05:23:58.407Z,52.08
2023-02-24T05:26:27.294Z,52.90
2023-02-24T05:28:56.795Z,52.58
2023-02-24T05:31:28.539Z,54.40
2023-02-24T05:34:03.380Z,54.65
2023-02-24T05:36:35.052Z,51.33
2023-02-24T05:39:07.856Z,56.20
2023-02-24T05:41:39.064Z,52.42
2023-02-24T05:44:13.641Z,52.78
2023-02-24T05:46:44.941Z,55.50
2023-02-24T05:49:20.962Z,52.95
2023-02-24T05:51:57.553Z,52.92
2023-02-24T05:54:31.650Z,53.30
2023-02-24T05:57:09.470Z,54.05
2023-02-24T05:59:39.406Z,56.33
2023-02-24T06:02:11.650Z,56.03
2023-02-24T06:04:51.666Z,58.53
2023-02-24T06:07:25.119Z,59.33
2023-02-24T06:09:57.489Z,60.63
2023-02-24T06:12:28.573Z,60.72
2023-02-24T06:15:00.245Z,60.50
2023-02-24T06:17:28.619Z,58.95
2023-02-24T06:19:57.206Z,58.88
2023-02-24T06:22:26.914Z,57.30
2023-02-24T06:24:57.266Z,56.85
2023-02-24T06:27:25.736Z,60.00
2023-02-24T06:29:55.211Z,57.28
2023-02-24T06:32:26.814Z,56.35
2023-02-24T06:34:55.655Z,59.00
2023-02-24T06:37:23.638Z,56.15
2023-02-24T06:39:52.151Z,57.40
2023-02-24T06:42:20.134Z,57.00
2023-02-24T06:44:49.134Z,55.50
2023-02-24T06:47:18.272Z,56.72
2023-02-24T06:49:46.585Z,57.08
2023-02-24T06:52:19.318Z,60.55
2023-02-24T06:54:49.754Z,57.08
2023-02-24T06:57:18.079Z,59.67
2023-02-24T06:59:46.555Z,58.08
2023-02-24T07:02:14.592Z,58.22
2023-02-24T07:04:45.656Z,58.67
2023-02-24T07:07:17.772Z,54.92
2023-02-24T07:09:46.284Z,57.67
2023-02-24T07:12:15.848Z,58.08
2023-02-24T07:14:44.303Z,55.97
2023-02-24T07:17:14.954Z,59.05
2023-02-24T07:19:44.494Z,55.50
2023-02-24T07:22:14.907Z,57.40
2023-02-24T07:24:46.611Z,57.40
2023-02-24T07:27:23.379Z,59.05
2023-02-24T07:29:53.181Z,56.38
2023-02-24T07:32:23.320Z,55.92
2023-02-24T07:34:51.889Z,61.50
2023-02-24T07:37:20.846Z,54.88
2023-02-24T07:39:49.250Z,59.72
2023-02-24T07:42:17.396Z,56.83
2023-02-24T07:44:49.409Z,57.80
2023-02-24T07:47:17.899Z,60.08
2023-02-24T07:49:46.813Z,57.00
2023-02-24T07:52:16.612Z,55.78
2023-02-24T07:54:45.599Z,57.50
2023-02-24T07:57:14.404Z,57.25
2023-02-24T07:59:45.706Z,55.47
2023-02-24T08:02:14.067Z,55.75
2023-02-24T08:04:50.629Z,55.05
2023-02-24T08:07:25.213Z,58.65
2023-02-24T08:10:12.441Z,58.10
2023-02-24T08:12:44.989Z,61.15
2023-02-24T08:15:24.398Z,59.25
2023-02-24T08:17:57.422Z,74.30
2023-02-24T08:20:52.652Z,70.97
2023-02-24T08:23:23.736Z,68.53
2023-02-24T08:25:54.069Z,64.18
2023-02-24T08:28:27.109Z,63.03
2023-02-24T08:30:56.013Z,65.50
2023-02-24T08:33:24.197Z,64.13
2023-02-24T08:36:01.687Z,62.70
2023-02-24T08:38:40.262Z,64.88
2023-02-24T08:41:18.669Z,62.17
2023-02-24T08:43:48.801Z,60.95
2023-02-24T08:46:27.070Z,58.90
2023-02-24T08:48:58.245Z,58.17
2023-02-24T08:51:35.345Z,58.10
2023-02-24T08:54:15.593Z,58.42
2023-02-24T08:56:49.955Z,55.65
2023-02-24T09:02:18.934Z,56.58
2023-02-24T09:04:49.686Z,59.78
2023-02-24T09:07:25.676Z,61.47
2023-02-24T09:09:57.375Z,59.72
2023-02-24T09:12:29.393Z,62.85
2023-02-24T09:15:05.053Z,61.88
2023-02-24T09:17:46.438Z,66.45
2023-02-24T09:20:36.185Z,66.97
2023-02-24T09:23:06.353Z,76.18
2023-02-24T09:25:41.134Z,69.03
2023-02-24T09:28:17.388Z,74.72
2023-02-24T09:31:17.349Z,77.18
2023-02-24T09:33:51.366Z,75.40
2023-02-24T09:39:00.982Z,70.50
2023-02-24T09:41:54.141Z,73.90
2023-02-24T09:44:39.681Z,72.22
2023-02-24T09:47:57.186Z,70.20
2023-02-24T09:51:04.245Z,71.88
2023-02-24T09:53:49.570Z,69.35
2023-02-24T09:56:25.893Z,68.70
2023-02-24T09:59:15.315Z,67.53
2023-02-24T10:01:46.616Z,69.68
2023-02-24T10:04:34.062Z,66.50
2023-02-24T10:07:30.652Z,62.58
2023-02-24T10:10:20.467Z,63.28
2023-02-24T10:13:14.393Z,61.60
2023-02-24T10:15:58.506Z,63.97
2023-02-24T10:18:31.995Z,62.60
2023-02-24T10:21:48.505Z,62.95
2023-02-24T10:24:29.699Z,60.00
2023-02-24T10:27:27.524Z,62.13
2023-02-24T10:30:20.020Z,59.70
2023-02-24T10:33:05.649Z,60.50
2023-02-24T10:35:34.452Z,63.35
2023-02-24T10:38:06.153Z,59.55
2023-02-24T10:40:45.320Z,60.05
2023-02-24T10:43:30.346Z,58.47
2023-02-24T10:46:06.473Z,58.00
2023-02-24T10:48:42.501Z,58.00
2023-02-24T10:51:20.744Z,57.65
2023-02-24T10:54:13.385Z,57.33
2023-02-24T10:56:55.553Z,59.30
2023-02-24T10:59:49.860Z,62.00
2023-02-24T11:02:33.111Z,58.70
2023-02-24T11:05:27.423Z,58.85
2023-02-24T11:08:33.623Z,57.97
2023-02-24T11:11:07.465Z,57.38
2023-02-24T11:13:56.024Z,56.42
2023-02-24T11:16:42.479Z,59.30
2023-02-24T11:19:11.549Z,58.30
2023-02-24T11:21:39.619Z,60.10
2023-02-24T11:24:18.450Z,60.05
2023-02-24T11:26:47.004Z,58.92
2023-02-24T11:29:27.333Z,54.03
2023-02-24T11:32:01.992Z,54.83
2023-02-24T11:35:18.348Z,56.72
2023-02-24T11:38:06.429Z,53.42
2023-02-24T11:40:42.148Z,56.67
2023-02-24T11:43:18.772Z,56.28
2023-02-24T11:45:52.781Z,55.30
2023-02-24T11:51:11.242Z,53.83
2023-02-24T11:53:42.122Z,53.22
2023-02-24T11:56:22.360Z,55.05
2023-02-24T11:59:25.397Z,51.85
2023-02-24T12:02:22.056Z,54.70
2023-02-24T12:05:03.905Z,53.50
2023-02-24T12:07:42.802Z,54.08
2023-02-24T12:10:20.589Z,50.38
2023-02-24T12:13:11.440Z,53.10
2023-02-24T12:15:46.991Z,55.33
2023-02-24T12:18:39.529Z,53.65
2023-02-24T12:21:10.475Z,53.80
2023-02-24T12:23:44.886Z,54.47
2023-02-24T12:26:40.078Z,53.17
2023-02-24T12:29:08.431Z,54.30
2023-02-24T12:31:41.927Z,55.35
2023-02-24T12:34:23.675Z,56.00
2023-02-24T12:37:30.592Z,54.67
2023-02-24T12:40:01.680Z,53.38
2023-02-24T12:42:29.531Z,50.85
2023-02-24T12:45:26.449Z,47.83
2023-02-24T12:48:12.301Z,50.03
2023-02-24T12:50:49.297Z,47.70
2023-02-24T12:53:43.551Z,50.83
2023-02-24T12:56:27.900Z,48.65
2023-02-24T12:59:05.752Z,48.83
2023-02-24T13:01:51.931Z,48.45
2023-02-24T13:04:48.397Z,50.33
2023-02-24T13:07:32.383Z,49.47
2023-02-24T13:10:06.376Z,47.30
2023-02-24T13:12:57.256Z,47.75
2023-02-24T13:15:31.671Z,48.63
2023-02-24T13:18:00.476Z,47.55
2023-02-24T13:20:30.246Z,47.47
2023-02-24T13:23:00.434Z,46.80
2023-02-24T13:25:37.483Z,48.10
2023-02-24T13:28:26.252Z,49.42
2023-02-24T13:31:04.282Z,45.40
2023-02-24T13:33:36.329Z,45.47
2023-02-24T13:36:22.001Z,45.63
2023-02-24T13:39:06.687Z,43.90
2023-02-24T13:41:41.151Z,42.90
2023-02-24T13:44:29.207Z,44.45
2023-02-24T13:47:29.471Z,46.60
2023-02-24T13:50:27.225Z,45.13
2023-02-24T13:53:24.203Z,47.25
2023-02-24T13:55:58.599Z,45.35
2023-02-24T13:58:40.317Z,42.72
2023-02-24T14:01:18.752Z,42.65
2023-02-24T14:04:22.914Z,39.58
2023-02-24T14:06:58.182Z,39.70
2023-02-24T14:09:32.972Z,41.80
2023-02-24T14:12:08.314Z,41.08
2023-02-24T14:14:36.863Z,37.90
2023-02-24T14:17:05.239Z,42.15
2023-02-24T14:19:33.264Z,42.10
2023-02-24T14:22:02.540Z,41.53
2023-02-24T14:24:30.541Z,40.33
2023-02-24T14:26:59.795Z,39.53
2023-02-24T14:29:32.400Z,39.85
2023-02-24T14:32:01.623Z,36.13
2023-02-24T14:34:32.693Z,38.15
2023-02-24T14:37:04.232Z,38.45
2023-02-24T14:39:34.476Z,36.53
2023-02-24T14:42:09.760Z,38.63
2023-02-24T14:44:47.902Z,38.72
2023-02-24T14:47:18.659Z,40.95
2023-02-24T14:49:57.394Z,38.33
2023-02-24T14:52:36.828Z,38.33
2023-02-24T14:55:26.712Z,38.53
2023-02-24T14:58:06.959Z,39.15
2023-02-24T15:00:49.152Z,39.22
2023-02-24T15:03:29.494Z,38.83
2023-02-24T15:06:04.915Z,41.08
2023-02-24T15:08:46.891Z,39.80
2023-02-24T15:11:17.530Z,39.67
2023-02-24T15:13:59.332Z,41.22
2023-02-24T15:16:33.959Z,36.88
2023-02-24T15:19:02.464Z,39.65
2023-02-24T15:21:39.490Z,40.55
2023-02-24T15:24:19.661Z,38.33
2023-02-24T15:26:59.998Z,38.00
2023-02-24T15:29:30.949Z,38.38
2023-02-24T15:32:01.089Z,41.08
2023-02-24T15:34:32.897Z,37.88
2023-02-24T15:37:15.087Z,39.78
2023-02-24T15:39:44.635Z,40.65
2023-02-24T15:42:28.661Z,41.53
2023-02-24T15:45:23.441Z,40.40
2023-02-24T15:47:54.746Z,38.40
2023-02-24T15:50:24.056Z,43.03
2023-02-24T15:52:52.156Z,41.08
2023-02-24T15:55:22.205Z,39.75
2023-02-24T15:58:01.567Z,40.03
2023-02-24T16:00:31.542Z,39.60
2023-02-24T16:02:59.507Z,38.30
2023-02-24T16:05:27.970Z,39.38
2023-02-24T16:07:56.463Z,39.65
2023-02-24T16:10:27.834Z,40.88
2023-02-24T16:13:01.687Z,42.63
2023-02-24T16:15:38.112Z,37.33
2023-02-24T16:18:20.985Z,38.10
2023-02-24T16:20:57.120Z,38.70
2023-02-24T16:23:26.625Z,38.03
2023-02-24T16:25:58.455Z,40.85
2023-02-24T16:28:27.336Z,40.08
2023-02-24T16:30:55.671Z,36.08
2023-02-24T16:33:24.275Z,38.30
2023-02-24T16:35:55.819Z,39.75
2023-02-24T16:38:27.122Z,36.30
2023-02-24T16:40:56.092Z,37.22
2023-02-24T16:43:24.949Z,38.90
2023-02-24T16:45:55.758Z,39.10
2023-02-24T16:48:26.667Z,38.20
2023-02-24T16:50:55.714Z,38.33
2023-02-24T16:53:24.845Z,39.60
2023-02-24T16:55:53.722Z,39.83
2023-02-24T16:58:23.629Z,39.00
2023-02-24T17:00:55.650Z,37.90
2023-02-24T17:03:30.860Z,39.35
2023-02-24T17:05:59.399Z,38.00
2023-02-24T17:08:27.379Z,42.50
2023-02-24T17:10:56.479Z,39.75
2023-02-24T17:13:24.379Z,41.00
2023-02-24T17:15:57.632Z,40.28
2023-02-24T17:18:27.131Z,41.33
2023-02-24T17:20:55.743Z,40.67
2023-02-24T17:23:24.047Z,40.53
2023-02-24T17:25:56.256Z,51.95
2023-02-24T17:28:24.432Z,46.05
2023-02-24T17:30:52.898Z,50.17
2023-02-24T17:33:21.085Z,39.25
2023-02-24T17:35:49.836Z,37.63
2023-02-24T17:38:21.678Z,37.45
2023-02-24T17:40:49.940Z,42.03
2023-02-24T17:43:18.137Z,42.03
2023-02-24T17:45:47.539Z,41.63
2023-02-24T17:48:16.209Z,43.47
2023-02-24T17:50:46.548Z,44.75
2023-02-24T17:53:15.627Z,43.53
2023-02-24T17:56:01.006Z,43.08
2023-02-24T17:58:30.253Z,41.47
2023-02-24T18:00:58.757Z,42.28
2023-02-24T18:03:26.778Z,40.67
2023-02-24T18:06:07.915Z,42.35
2023-02-24T18:08:37.106Z,38.72
2023-02-24T18:11:06.877Z,41.13
2023-02-24T18:13:34.919Z,42.30
2023-02-24T18:16:08.929Z,40.33
2023-02-24T18:18:37.359Z,41.05
2023-02-24T18:21:08.931Z,43.85
2023-02-24T18:23:40.423Z,42.50
2023-02-24T18:26:11.152Z,45.25
2023-02-24T18:28:39.636Z,44.38
2023-02-24T18:31:19.358Z,45.65
2023-02-24T18:33:47.730Z,44.20
2023-02-24T18:36:16.993Z,43.88
2023-02-24T18:38:45.392Z,43.65
2023-02-24T18:41:17.280Z,43.63
2023-02-24T18:43:49.458Z,43.60
2023-02-24T18:46:18.856Z,44.75
2023-02-24T18:48:47.694Z,43.28
2023-02-24T18:51:18.522Z,43.63
2023-02-24T18:53:47.263Z,43.22
2023-02-24T18:56:19.716Z,45.60
2023-02-24T18:58:50.074Z,43.78
2023-02-24T19:01:25.520Z,44.88
2023-02-24T19:03:55.565Z,44.03
2023-02-24T19:06:27.093Z,45.55
2023-02-24T19:09:12.711Z,43.83
2023-02-24T19:11:41.935Z,44.88
2023-02-24T19:14:12.092Z,44.70
2023-02-24T19:16:41.295Z,47.15
2023-02-24T19:19:16.266Z,43.65
2023-02-24T19:21:45.756Z,48.42
2023-02-24T19:24:14.200Z,45.15
2023-02-24T19:26:44.571Z,47.47
2023-02-24T19:29:12.648Z,48.63
2023-02-24T19:31:41.266Z,46.97
2023-02-24T19:34:13.156Z,45.88
2023-02-24T19:36:41.474Z,49.45
2023-02-24T19:39:12.633Z,45.03
2023-02-24T19:41:41.403Z,48.03
2023-02-24T19:44:10.696Z,48.42
2023-02-24T19:46:39.232Z,46.28
2023-02-24T19:49:07.447Z,46.05
2023-02-24T19:51:35.927Z,49.65
2023-02-24T19:54:06.379Z,50.88
2023-02-24T19:56:36.867Z,49.65
2023-02-24T19:59:06.943Z,46.55
2023-02-24T20:01:35.322Z,49.03
2023-02-24T20:04:04.133Z,47.55
2023-02-24T20:06:35.973Z,46.85
2023-02-24T20:09:15.291Z,46.05
2023-02-24T20:11:45.532Z,47.88
2023-02-24T20:14:17.040Z,47.75
2023-02-24T20:16:46.119Z,50.08
2023-02-24T20:19:15.445Z,49.20
2023-02-24T20:21:44.255Z,47.38
2023-02-24T20:24:15.709Z,49.58
2023-02-24T20:26:47.403Z,49.22
2023-02-24T20:29:17.016Z,48.50
2023-02-24T20:31:46.725Z,44.45
2023-02-24T20:34:17.208Z,48.22
2023-02-24T20:36:45.648Z,49.85
2023-02-24T20:39:13.912Z,47.88
2023-02-24T20:41:42.586Z,51.45
2023-02-24T20:44:12.023Z,48.30
2023-02-24T20:46:40.248Z,48.83
2023-02-24T20:49:12.015Z,50.17
2023-02-24T20:51:41.310Z,49.42
2023-02-24T20:54:11.538Z,50.15
2023-02-24T20:56:43.150Z,49.85
2023-02-24T20:59:16.890Z,50.92
2023-02-24T21:01:47.535Z,49.25
2023-02-24T21:04:18.527Z,49.67
2023-02-24T21:06:48.293Z,50.63
2023-02-24T21:09:16.604Z,53.00
2023-02-24T21:11:44.999Z,49.28
2023-02-24T21:14:15.809Z,49.63
2023-02-24T21:16:46.360Z,48.63
2023-02-24T21:19:14.921Z,49.53
2023-02-24T21:21:43.116Z,52.50
2023-02-24T21:24:10.892Z,51.08
2023-02-24T21:26:39.171Z,50.40
2023-02-24T21:29:07.223Z,52.35
2023-02-24T21:31:35.539Z,55.53
2023-02-24T21:34:04.022Z,51.45
2023-02-24T21:36:32.213Z,51.15
2023-02-24T21:39:01.087Z,48.78
2023-02-24T21:41:29.265Z,51.00
2023-02-24T21:43:57.246Z,50.65
2023-02-24T21:46:28.673Z,52.47
2023-02-24T21:49:00.468Z,49.03
2023-02-24T21:51:29.413Z,49.83
2023-02-24T21:53:58.107Z,49.90
2023-02-24T21:56:29.173Z,50.08
2023-02-24T21:59:03.414Z,52.08
2023-02-24T22:01:37.177Z,52.38
2023-02-24T22:04:08.218Z,51.63
2023-02-24T22:06:38.121Z,53.60
2023-02-24T22:09:08.014Z,50.53
2023-02-24T22:11:38.965Z,52.85
2023-02-24T22:14:09.015Z,51.15
2023-02-24T22:16:37.590Z,48.53
2023-02-24T22:19:05.772Z,50.60
2023-02-24T22:21:34.449Z,49.50
2023-02-24T22:24:03.315Z,50.97
2023-02-24T22:26:32.384Z,49.95
2023-02-24T22:29:00.804Z,51.50
2023-02-24T22:31:31.832Z,51.15
2023-02-24T22:34:00.429Z,50.35
2023-02-24T22:36:33.381Z,49.08
2023-02-24T22:39:01.889Z,50.28
2023-02-24T22:41:32.868Z,52.28
2023-02-24T22:44:05.169Z,51.10
2023-02-24T22:46:37.109Z,50.42
2023-02-24T22:49:05.995Z,52.25
2023-02-24T22:51:34.256Z,51.47
2023-02-24T22:54:02.282Z,52.53
2023-02-24T22:56:30.933Z,51.38
2023-02-24T22:58:59.386Z,49.95
2023-02-24T23:01:30.507Z,51.72
2023-02-24T23:04:03.791Z,51.17
2023-02-24T23:06:33.074Z,50.17
2023-02-24T23:09:02.134Z,50.33
2023-02-24T23:11:33.586Z,53.65
2023-02-24T23:14:04.133Z,50.47
2023-02-24T23:16:34.911Z,49.28
2023-02-24T23:19:07.489Z,49.55
2023-02-24T23:21:41.691Z,53.10
2023-02-24T23:24:11.422Z,52.78
2023-02-24T23:26:48.519Z,50.88
2023-02-24T23:29:17.977Z,49.80
2023-02-24T23:31:46.530Z,52.63
2023-02-24T23:34:15.021Z,50.25
2023-02-24T23:36:45.630Z,51.65
2023-02-24T23:39:16.359Z,53.65
2023-02-24T23:41:44.627Z,55.03
2023-02-24T23:44:12.867Z,53.45
2023-02-24T23:46:44.229Z,55.58
2023-02-24T23:49:11.983Z,53.88
2023-02-24T23:51:47.989Z,57.10
2023-02-24T23:54:18.224Z,57.90
2023-02-24T23:56:47.152Z,57.58
2023-02-24T23:59:15.311Z,55.40
